CSN3864 ZSHC-ZGGG
Flight info
| Callsign | CSN3864 |
|---|---|
| Flight time | 1h 28m |
| Altitude | 34100 |
| Route | ELNEX8D ELNEX A599 PLT W19 OLPAB OLPAB8 |
| Aircraft | B77W/H-SDE1E2E3FGHIJ2J3J4J5M1RWXY/LB1D1 |
Departure
| Time | 2026-04-27 06:07 |
|---|---|
| Airport | Hangzhou Xiaoshan International Airport (ZSHC) |
Arrival
| Time | 2026-04-27 07:35 |
|---|---|
| Airport | Guangzhou Baiyun International Airport (ZGGG) |
| Time | Latitude | Longitude | Altitude | Speed | Heading |
|---|---|---|---|---|---|
| 2026-04-27 05:19 | 30.24127 | 120.42631 | 35 ft | 0 kts | 143° |
| 2026-04-27 05:34 | 30.24137 | 120.42622 | 34 ft | 2 kts | 143° |
| 2026-04-27 05:35 | 30.24149 | 120.42612 | 34 ft | 2 kts | 143° |
| 2026-04-27 05:35 | 30.24161 | 120.42602 | 34 ft | 2 kts | 143° |
| 2026-04-27 05:35 | 30.24173 | 120.42591 | 34 ft | 2 kts | 143° |
| 2026-04-27 05:35 | 30.24184 | 120.42580 | 34 ft | 2 kts | 125° |
| 2026-04-27 05:36 | 30.24190 | 120.42564 | 34 ft | 2 kts | 99° |
| 2026-04-27 05:36 | 30.24191 | 120.42548 | 34 ft | 2 kts | 78° |
| 2026-04-27 05:36 | 30.24186 | 120.42532 | 34 ft | 2 kts | 59° |
| 2026-04-27 05:36 | 30.24178 | 120.42517 | 34 ft | 2 kts | 60° |
| 2026-04-27 05:37 | 30.24172 | 120.42503 | 34 ft | 0 kts | 63° |
| 2026-04-27 05:37 | 30.24171 | 120.42502 | 34 ft | 0 kts | 63° |
| 2026-04-27 05:42 | 30.24174 | 120.42509 | 34 ft | 2 kts | 63° |
| 2026-04-27 05:42 | 30.24187 | 120.42539 | 34 ft | 5 kts | 63° |
| 2026-04-27 05:43 | 30.24209 | 120.42589 | 34 ft | 8 kts | 63° |
| 2026-04-27 05:43 | 30.24241 | 120.42659 | 34 ft | 11 kts | 63° |
| 2026-04-27 05:43 | 30.24279 | 120.42744 | 34 ft | 13 kts | 63° |
| 2026-04-27 05:43 | 30.24312 | 120.42803 | 34 ft | 6 kts | 30° |
| 2026-04-27 05:44 | 30.24359 | 120.42794 | 34 ft | 7 kts | 336° |
| 2026-04-27 05:44 | 30.24409 | 120.42767 | 34 ft | 9 kts | 334° |
| 2026-04-27 05:44 | 30.24471 | 120.42752 | 34 ft | 9 kts | 34° |
| 2026-04-27 05:44 | 30.24511 | 120.42824 | 34 ft | 11 kts | 63° |
| 2026-04-27 05:45 | 30.24551 | 120.42915 | 34 ft | 13 kts | 63° |
| 2026-04-27 05:45 | 30.24596 | 120.43017 | 34 ft | 15 kts | 63° |
| 2026-04-27 05:45 | 30.24646 | 120.43130 | 34 ft | 16 kts | 63° |
| 2026-04-27 05:45 | 30.24700 | 120.43251 | 34 ft | 17 kts | 63° |
| 2026-04-27 05:46 | 30.24756 | 120.43378 | 34 ft | 17 kts | 63° |
| 2026-04-27 05:46 | 30.24810 | 120.43501 | 34 ft | 16 kts | 63° |
| 2026-04-27 05:46 | 30.24859 | 120.43611 | 34 ft | 14 kts | 63° |
| 2026-04-27 05:46 | 30.24905 | 120.43714 | 34 ft | 13 kts | 63° |
| 2026-04-27 05:47 | 30.24946 | 120.43809 | 34 ft | 12 kts | 63° |
| 2026-04-27 05:47 | 30.24985 | 120.43895 | 34 ft | 11 kts | 63° |
| 2026-04-27 05:47 | 30.25020 | 120.43975 | 34 ft | 10 kts | 63° |
| 2026-04-27 05:47 | 30.25054 | 120.44037 | 34 ft | 5 kts | 25° |
| 2026-04-27 05:48 | 30.25098 | 120.44029 | 34 ft | 6 kts | 335° |
| 2026-04-27 05:48 | 30.25104 | 120.44026 | 34 ft | 0 kts | 332° |
| 2026-04-27 06:05 | 30.25110 | 120.44022 | 34 ft | 2 kts | 332° |
| 2026-04-27 06:05 | 30.25134 | 120.44008 | 34 ft | 5 kts | 332° |
| 2026-04-27 06:05 | 30.25171 | 120.43982 | 34 ft | 7 kts | 317° |
| 2026-04-27 06:05 | 30.25186 | 120.43922 | 34 ft | 9 kts | 257° |
| 2026-04-27 06:06 | 30.25157 | 120.43848 | 34 ft | 12 kts | 243° |
| 2026-04-27 06:06 | 30.25055 | 120.43616 | 34 ft | 63 kts | 243° |
| 2026-04-27 06:06 | 30.24748 | 120.42925 | 35 ft | 128 kts | 242° |
| 2026-04-27 06:06 | 30.24257 | 120.41809 | 128 ft | 173 kts | 244° |
| 2026-04-27 06:07 | 30.23690 | 120.40555 | 700 ft | 180 kts | 240° |
| 2026-04-27 06:07 | 30.23099 | 120.39249 | 1348 ft | 187 kts | 243° |
| 2026-04-27 06:07 | 30.22499 | 120.37867 | 1713 ft | 202 kts | 243° |
| 2026-04-27 06:07 | 30.21836 | 120.36363 | 2053 ft | 218 kts | 243° |
| 2026-04-27 06:08 | 30.21113 | 120.34737 | 2433 ft | 235 kts | 243° |
| 2026-04-27 06:08 | 30.20344 | 120.33007 | 2845 ft | 251 kts | 244° |
| 2026-04-27 06:08 | 30.19519 | 120.31152 | 3296 ft | 266 kts | 244° |
| 2026-04-27 06:08 | 30.18673 | 120.29252 | 4056 ft | 267 kts | 244° |
| 2026-04-27 06:09 | 30.17829 | 120.27358 | 4787 ft | 269 kts | 244° |
| 2026-04-27 06:09 | 30.16976 | 120.25443 | 5512 ft | 271 kts | 244° |
| 2026-04-27 06:09 | 30.16102 | 120.23482 | 6253 ft | 272 kts | 243° |
| 2026-04-27 06:09 | 30.15233 | 120.21534 | 6942 ft | 275 kts | 244° |
| 2026-04-27 06:10 | 30.14361 | 120.19589 | 7600 ft | 278 kts | 242° |
| 2026-04-27 06:10 | 30.13312 | 120.17727 | 8297 ft | 280 kts | 236° |
| 2026-04-27 06:10 | 30.12162 | 120.15887 | 8951 ft | 283 kts | 236° |
| 2026-04-27 06:10 | 30.10996 | 120.14032 | 9582 ft | 286 kts | 236° |
| 2026-04-27 06:11 | 30.09829 | 120.12167 | 10261 ft | 287 kts | 236° |
| 2026-04-27 06:11 | 30.08673 | 120.10316 | 10926 ft | 288 kts | 236° |
| 2026-04-27 06:11 | 30.07504 | 120.08443 | 11632 ft | 290 kts | 236° |
| 2026-04-27 06:11 | 30.06320 | 120.06548 | 12369 ft | 292 kts | 236° |
| 2026-04-27 06:12 | 30.05138 | 120.04656 | 13128 ft | 292 kts | 236° |
| 2026-04-27 06:12 | 30.03958 | 120.02768 | 13897 ft | 294 kts | 236° |
| 2026-04-27 06:12 | 30.02755 | 120.00846 | 14526 ft | 297 kts | 237° |
| 2026-04-27 06:12 | 30.01626 | 119.98851 | 14681 ft | 305 kts | 242° |
| 2026-04-27 06:13 | 30.00523 | 119.96631 | 14692 ft | 336 kts | 242° |
| 2026-04-27 06:13 | 29.99304 | 119.94149 | 14679 ft | 365 kts | 242° |
| 2026-04-27 06:13 | 29.98030 | 119.91576 | 14688 ft | 374 kts | 242° |
| 2026-04-27 06:13 | 29.96736 | 119.88969 | 14693 ft | 374 kts | 242° |
| 2026-04-27 06:14 | 29.95446 | 119.86373 | 14692 ft | 373 kts | 242° |
| 2026-04-27 06:14 | 29.94170 | 119.83808 | 14698 ft | 373 kts | 242° |
| 2026-04-27 06:14 | 29.92877 | 119.81210 | 14706 ft | 373 kts | 242° |
| 2026-04-27 06:14 | 29.91572 | 119.78589 | 14709 ft | 374 kts | 242° |
| 2026-04-27 06:15 | 29.90277 | 119.75989 | 14715 ft | 374 kts | 242° |
| 2026-04-27 06:15 | 29.88973 | 119.73374 | 14726 ft | 374 kts | 242° |
| 2026-04-27 06:15 | 29.87687 | 119.70796 | 14727 ft | 374 kts | 242° |
| 2026-04-27 06:15 | 29.86315 | 119.68261 | 14734 ft | 375 kts | 235° |
| 2026-04-27 06:16 | 29.84574 | 119.66000 | 14740 ft | 382 kts | 225° |
| 2026-04-27 06:16 | 29.82449 | 119.64095 | 15343 ft | 394 kts | 218° |
| 2026-04-27 06:16 | 29.80237 | 119.62349 | 16593 ft | 385 kts | 218° |
| 2026-04-27 06:16 | 29.78034 | 119.60620 | 17643 ft | 382 kts | 218° |
| 2026-04-27 06:17 | 29.75822 | 119.58885 | 18375 ft | 387 kts | 218° |
| 2026-04-27 06:17 | 29.73590 | 119.57137 | 18939 ft | 396 kts | 218° |
| 2026-04-27 06:17 | 29.71301 | 119.55346 | 19566 ft | 402 kts | 218° |
| 2026-04-27 06:17 | 29.68960 | 119.53517 | 20271 ft | 407 kts | 218° |
| 2026-04-27 06:18 | 29.66613 | 119.51685 | 20958 ft | 410 kts | 218° |
| 2026-04-27 06:18 | 29.64269 | 119.49828 | 21531 ft | 415 kts | 221° |
| 2026-04-27 06:18 | 29.62113 | 119.47633 | 22050 ft | 418 kts | 230° |
| 2026-04-27 06:18 | 29.60121 | 119.45139 | 22617 ft | 422 kts | 231° |
| 2026-04-27 06:19 | 29.58159 | 119.42633 | 23264 ft | 425 kts | 231° |
| 2026-04-27 06:19 | 29.56184 | 119.40112 | 23926 ft | 428 kts | 232° |
| 2026-04-27 06:19 | 29.54184 | 119.37562 | 24495 ft | 432 kts | 232° |
| 2026-04-27 06:19 | 29.52185 | 119.35013 | 25020 ft | 437 kts | 231° |
| 2026-04-27 06:20 | 29.50133 | 119.32398 | 25641 ft | 440 kts | 231° |
| 2026-04-27 06:20 | 29.48093 | 119.29801 | 26309 ft | 441 kts | 231° |
| 2026-04-27 06:20 | 29.46028 | 119.27174 | 26919 ft | 444 kts | 231° |
| 2026-04-27 06:20 | 29.43954 | 119.24538 | 27465 ft | 449 kts | 231° |
| 2026-04-27 06:21 | 29.41876 | 119.21898 | 28020 ft | 452 kts | 231° |
| 2026-04-27 06:21 | 29.39754 | 119.19203 | 28594 ft | 456 kts | 231° |
| 2026-04-27 06:21 | 29.37640 | 119.16523 | 29156 ft | 459 kts | 232° |
| 2026-04-27 06:21 | 29.35495 | 119.13805 | 29893 ft | 459 kts | 232° |
| 2026-04-27 06:22 | 29.33379 | 119.11131 | 30750 ft | 455 kts | 231° |
| 2026-04-27 06:22 | 29.31243 | 119.08435 | 31627 ft | 451 kts | 231° |
| 2026-04-27 06:22 | 29.29165 | 119.05813 | 32388 ft | 447 kts | 231° |
| 2026-04-27 06:22 | 29.27092 | 119.03198 | 33067 ft | 445 kts | 231° |
| 2026-04-27 06:23 | 29.25014 | 119.00579 | 33719 ft | 443 kts | 231° |
| 2026-04-27 06:23 | 29.22932 | 118.97956 | 34031 ft | 446 kts | 231° |
| 2026-04-27 06:23 | 29.18760 | 118.92713 | 34035 ft | 442 kts | 231° |
| 2026-04-27 06:24 | 29.14585 | 118.87470 | 34042 ft | 445 kts | 231° |
| 2026-04-27 06:24 | 29.10378 | 118.82196 | 34040 ft | 444 kts | 231° |
| 2026-04-27 06:25 | 29.06189 | 118.76951 | 34033 ft | 446 kts | 231° |
| 2026-04-27 06:25 | 29.01995 | 118.71705 | 34017 ft | 447 kts | 231° |
| 2026-04-27 06:26 | 28.97832 | 118.66507 | 34000 ft | 445 kts | 231° |
| 2026-04-27 06:26 | 28.93637 | 118.61274 | 34006 ft | 445 kts | 231° |
| 2026-04-27 06:27 | 28.89457 | 118.56066 | 34015 ft | 446 kts | 231° |
| 2026-04-27 06:27 | 28.85265 | 118.50850 | 34013 ft | 445 kts | 231° |
| 2026-04-27 06:28 | 28.81057 | 118.45622 | 34010 ft | 448 kts | 231° |
| 2026-04-27 06:28 | 28.76831 | 118.40378 | 34011 ft | 448 kts | 231° |
| 2026-04-27 06:29 | 28.72582 | 118.35111 | 34010 ft | 447 kts | 231° |
| 2026-04-27 06:29 | 28.68378 | 118.29908 | 34021 ft | 449 kts | 231° |
| 2026-04-27 06:30 | 28.64159 | 118.24693 | 34021 ft | 447 kts | 230° |
| 2026-04-27 06:30 | 28.59926 | 118.19467 | 34031 ft | 448 kts | 230° |
| 2026-04-27 06:31 | 28.55696 | 118.14251 | 34040 ft | 449 kts | 230° |
| 2026-04-27 06:31 | 28.51423 | 118.08989 | 34023 ft | 449 kts | 230° |
| 2026-04-27 06:32 | 28.47162 | 118.03748 | 34018 ft | 451 kts | 230° |
| 2026-04-27 06:32 | 28.42908 | 117.98523 | 34016 ft | 451 kts | 230° |
| 2026-04-27 06:33 | 28.38593 | 117.93330 | 34014 ft | 450 kts | 229° |
| 2026-04-27 06:33 | 28.34250 | 117.88215 | 34021 ft | 451 kts | 229° |
| 2026-04-27 06:34 | 28.29881 | 117.83067 | 34017 ft | 451 kts | 229° |
| 2026-04-27 06:34 | 28.25534 | 117.77949 | 34006 ft | 451 kts | 229° |
| 2026-04-27 06:35 | 28.21148 | 117.72788 | 34010 ft | 452 kts | 229° |
| 2026-04-27 06:35 | 28.16803 | 117.67681 | 34025 ft | 452 kts | 229° |
| 2026-04-27 06:36 | 28.12420 | 117.62536 | 34037 ft | 453 kts | 229° |
| 2026-04-27 06:36 | 28.08045 | 117.57405 | 34034 ft | 454 kts | 229° |
| 2026-04-27 06:37 | 28.03647 | 117.52254 | 34030 ft | 454 kts | 229° |
| 2026-04-27 06:37 | 27.99271 | 117.47132 | 34025 ft | 455 kts | 229° |
| 2026-04-27 06:38 | 27.94857 | 117.41972 | 34048 ft | 454 kts | 229° |
| 2026-04-27 06:38 | 27.90447 | 117.36823 | 34058 ft | 454 kts | 229° |
| 2026-04-27 06:39 | 27.86014 | 117.31654 | 34064 ft | 456 kts | 229° |
| 2026-04-27 06:39 | 27.81618 | 117.26536 | 34069 ft | 452 kts | 229° |
| 2026-04-27 06:40 | 27.77218 | 117.21416 | 34071 ft | 454 kts | 229° |
| 2026-04-27 06:40 | 27.72823 | 117.16312 | 34049 ft | 454 kts | 229° |
| 2026-04-27 06:41 | 27.68409 | 117.11190 | 34045 ft | 454 kts | 229° |
| 2026-04-27 06:41 | 27.63994 | 117.06074 | 34056 ft | 454 kts | 229° |
| 2026-04-27 06:42 | 27.59582 | 117.00968 | 34067 ft | 454 kts | 229° |
| 2026-04-27 06:42 | 27.55166 | 116.95863 | 34071 ft | 454 kts | 229° |
| 2026-04-27 06:43 | 27.50770 | 116.90781 | 34069 ft | 454 kts | 229° |
| 2026-04-27 06:43 | 27.46388 | 116.85645 | 34051 ft | 454 kts | 229° |
| 2026-04-27 06:44 | 27.41973 | 116.80477 | 34037 ft | 455 kts | 229° |
| 2026-04-27 06:44 | 27.37600 | 116.75366 | 34025 ft | 453 kts | 229° |
| 2026-04-27 06:45 | 27.33226 | 116.70261 | 34021 ft | 454 kts | 229° |
| 2026-04-27 06:45 | 27.28816 | 116.65121 | 34018 ft | 453 kts | 229° |
| 2026-04-27 06:46 | 27.24432 | 116.60017 | 34012 ft | 457 kts | 229° |
| 2026-04-27 06:46 | 27.20010 | 116.54868 | 34014 ft | 455 kts | 230° |
| 2026-04-27 06:47 | 27.15693 | 116.49632 | 34014 ft | 455 kts | 230° |
| 2026-04-27 06:47 | 27.11406 | 116.44428 | 34031 ft | 453 kts | 230° |
| 2026-04-27 06:48 | 27.07115 | 116.39231 | 34033 ft | 455 kts | 230° |
| 2026-04-27 06:48 | 27.02836 | 116.34059 | 34044 ft | 456 kts | 230° |
| 2026-04-27 06:49 | 26.98500 | 116.28827 | 34048 ft | 454 kts | 230° |
| 2026-04-27 06:49 | 26.94181 | 116.23621 | 34046 ft | 456 kts | 230° |
| 2026-04-27 06:50 | 26.89849 | 116.18385 | 34048 ft | 456 kts | 230° |
| 2026-04-27 06:50 | 26.85564 | 116.13160 | 34042 ft | 456 kts | 230° |
| 2026-04-27 06:51 | 26.81241 | 116.07898 | 34037 ft | 458 kts | 230° |
| 2026-04-27 06:51 | 26.76916 | 116.02642 | 34035 ft | 456 kts | 230° |
| 2026-04-27 06:52 | 26.72617 | 115.97424 | 34034 ft | 454 kts | 230° |
| 2026-04-27 06:52 | 26.68323 | 115.92219 | 34033 ft | 454 kts | 230° |
| 2026-04-27 06:53 | 26.64066 | 115.87065 | 34036 ft | 452 kts | 231° |
| 2026-04-27 06:53 | 26.59777 | 115.81879 | 34038 ft | 454 kts | 231° |
| 2026-04-27 06:54 | 26.55513 | 115.76730 | 34031 ft | 453 kts | 231° |
| 2026-04-27 06:54 | 26.51220 | 115.71551 | 34019 ft | 451 kts | 231° |
| 2026-04-27 06:55 | 26.46955 | 115.66413 | 34023 ft | 453 kts | 231° |
| 2026-04-27 06:55 | 26.42657 | 115.61240 | 34025 ft | 451 kts | 231° |
| 2026-04-27 06:56 | 26.38415 | 115.56142 | 34031 ft | 451 kts | 231° |
| 2026-04-27 06:56 | 26.34116 | 115.50980 | 34030 ft | 449 kts | 231° |
| 2026-04-27 06:57 | 26.29862 | 115.45876 | 34029 ft | 452 kts | 231° |
| 2026-04-27 06:57 | 26.25577 | 115.40744 | 34017 ft | 450 kts | 231° |
| 2026-04-27 06:58 | 26.19148 | 115.33054 | 34010 ft | 449 kts | 231° |
| 2026-04-27 06:59 | 26.14877 | 115.27954 | 33997 ft | 450 kts | 231° |
| 2026-04-27 06:59 | 26.10627 | 115.22884 | 33993 ft | 449 kts | 231° |
| 2026-04-27 07:00 | 26.06358 | 115.17796 | 33989 ft | 448 kts | 231° |
| 2026-04-27 07:00 | 26.02101 | 115.12729 | 33996 ft | 450 kts | 231° |
| 2026-04-27 07:01 | 25.97828 | 115.07649 | 34015 ft | 447 kts | 231° |
| 2026-04-27 07:01 | 25.93553 | 115.02571 | 34033 ft | 450 kts | 231° |
| 2026-04-27 07:02 | 25.89292 | 114.97517 | 34028 ft | 449 kts | 231° |
| 2026-04-27 07:02 | 25.84986 | 114.92428 | 34016 ft | 450 kts | 229° |
| 2026-04-27 07:03 | 25.79886 | 114.88203 | 34012 ft | 462 kts | 212° |
| 2026-04-27 07:03 | 25.73789 | 114.85777 | 34016 ft | 470 kts | 198° |
| 2026-04-27 07:04 | 25.67336 | 114.84151 | 34007 ft | 471 kts | 197° |
| 2026-04-27 07:04 | 25.60934 | 114.82558 | 34002 ft | 471 kts | 197° |
| 2026-04-27 07:05 | 25.54543 | 114.80972 | 34000 ft | 470 kts | 198° |
| 2026-04-27 07:05 | 25.48120 | 114.79381 | 34002 ft | 469 kts | 197° |
| 2026-04-27 07:06 | 25.41724 | 114.77797 | 34004 ft | 470 kts | 197° |
| 2026-04-27 07:06 | 25.35356 | 114.76224 | 34008 ft | 467 kts | 197° |
| 2026-04-27 07:07 | 25.29005 | 114.74654 | 34003 ft | 470 kts | 197° |
| 2026-04-27 07:07 | 25.22610 | 114.73077 | 34001 ft | 470 kts | 197° |
| 2026-04-27 07:08 | 25.16228 | 114.71506 | 34012 ft | 468 kts | 197° |
| 2026-04-27 07:08 | 25.09816 | 114.69928 | 34020 ft | 468 kts | 197° |
| 2026-04-27 07:09 | 25.03455 | 114.68364 | 34038 ft | 468 kts | 197° |
| 2026-04-27 07:09 | 24.97084 | 114.66800 | 34045 ft | 466 kts | 197° |
| 2026-04-27 07:10 | 24.90731 | 114.65241 | 34039 ft | 469 kts | 197° |
| 2026-04-27 07:10 | 24.84356 | 114.63678 | 34038 ft | 467 kts | 197° |
| 2026-04-27 07:11 | 24.78121 | 114.62146 | 34024 ft | 469 kts | 197° |
| 2026-04-27 07:11 | 24.71750 | 114.60519 | 33935 ft | 462 kts | 202° |
| 2026-04-27 07:11 | 24.68793 | 114.59291 | 33520 ft | 459 kts | 210° |
| 2026-04-27 07:12 | 24.65940 | 114.57613 | 32914 ft | 463 kts | 214° |
| 2026-04-27 07:12 | 24.63159 | 114.55847 | 32420 ft | 467 kts | 214° |
| 2026-04-27 07:12 | 24.60348 | 114.54060 | 32093 ft | 469 kts | 214° |
| 2026-04-27 07:12 | 24.57507 | 114.52258 | 31908 ft | 467 kts | 214° |
| 2026-04-27 07:13 | 24.54678 | 114.50468 | 31779 ft | 464 kts | 213° |
| 2026-04-27 07:13 | 24.51906 | 114.48715 | 31543 ft | 462 kts | 213° |
| 2026-04-27 07:13 | 24.49136 | 114.46967 | 30844 ft | 460 kts | 213° |
| 2026-04-27 07:13 | 24.46371 | 114.45222 | 30227 ft | 456 kts | 213° |
| 2026-04-27 07:14 | 24.43651 | 114.43508 | 29731 ft | 449 kts | 213° |
| 2026-04-27 07:14 | 24.40949 | 114.41808 | 29216 ft | 443 kts | 213° |
| 2026-04-27 07:14 | 24.38294 | 114.40139 | 28698 ft | 439 kts | 213° |
| 2026-04-27 07:14 | 24.35591 | 114.38442 | 28171 ft | 451 kts | 213° |
| 2026-04-27 07:15 | 24.32869 | 114.36732 | 27602 ft | 454 kts | 213° |
| 2026-04-27 07:15 | 24.30131 | 114.35017 | 27037 ft | 450 kts | 213° |
| 2026-04-27 07:15 | 24.27418 | 114.33319 | 26480 ft | 446 kts | 212° |
| 2026-04-27 07:15 | 24.24720 | 114.31631 | 25906 ft | 441 kts | 212° |
| 2026-04-27 07:16 | 24.22049 | 114.29960 | 25335 ft | 436 kts | 212° |
| 2026-04-27 07:16 | 24.19437 | 114.28326 | 24760 ft | 432 kts | 212° |
| 2026-04-27 07:16 | 24.16841 | 114.26704 | 24182 ft | 428 kts | 212° |
| 2026-04-27 07:16 | 24.14264 | 114.25094 | 23605 ft | 424 kts | 212° |
| 2026-04-27 07:17 | 24.11715 | 114.23502 | 23022 ft | 420 kts | 212° |
| 2026-04-27 07:17 | 24.09193 | 114.21926 | 22442 ft | 415 kts | 213° |
| 2026-04-27 07:17 | 24.06843 | 114.20188 | 21896 ft | 409 kts | 219° |
| 2026-04-27 07:17 | 24.04560 | 114.18333 | 21326 ft | 406 kts | 219° |
| 2026-04-27 07:18 | 24.02323 | 114.16509 | 20750 ft | 403 kts | 218° |
| 2026-04-27 07:18 | 24.00071 | 114.14674 | 20175 ft | 399 kts | 218° |
| 2026-04-27 07:18 | 23.97854 | 114.12868 | 19602 ft | 396 kts | 218° |
| 2026-04-27 07:18 | 23.95665 | 114.11087 | 19024 ft | 393 kts | 218° |
| 2026-04-27 07:19 | 23.93483 | 114.09313 | 18446 ft | 390 kts | 218° |
| 2026-04-27 07:19 | 23.91314 | 114.07551 | 17873 ft | 387 kts | 218° |
| 2026-04-27 07:19 | 23.89227 | 114.05856 | 17308 ft | 384 kts | 217° |
| 2026-04-27 07:19 | 23.87083 | 114.04115 | 16731 ft | 381 kts | 217° |
| 2026-04-27 07:20 | 23.84968 | 114.02400 | 16168 ft | 377 kts | 217° |
| 2026-04-27 07:20 | 23.82856 | 114.00687 | 15589 ft | 374 kts | 217° |
| 2026-04-27 07:20 | 23.80783 | 113.99007 | 14994 ft | 372 kts | 217° |
| 2026-04-27 07:20 | 23.78728 | 113.97343 | 14403 ft | 369 kts | 217° |
| 2026-04-27 07:21 | 23.76683 | 113.95687 | 13867 ft | 364 kts | 217° |
| 2026-04-27 07:21 | 23.74638 | 113.94032 | 13335 ft | 360 kts | 216° |
| 2026-04-27 07:21 | 23.72646 | 113.92421 | 12808 ft | 356 kts | 216° |
| 2026-04-27 07:21 | 23.70676 | 113.90828 | 12272 ft | 353 kts | 216° |
| 2026-04-27 07:22 | 23.68717 | 113.89244 | 11741 ft | 350 kts | 216° |
| 2026-04-27 07:22 | 23.66820 | 113.87569 | 11210 ft | 347 kts | 226° |
| 2026-04-27 07:22 | 23.65440 | 113.85437 | 10730 ft | 344 kts | 243° |
| 2026-04-27 07:22 | 23.64806 | 113.83001 | 10562 ft | 334 kts | 263° |
| 2026-04-27 07:23 | 23.64873 | 113.80518 | 10479 ft | 321 kts | 274° |
| 2026-04-27 07:23 | 23.65210 | 113.78139 | 10369 ft | 310 kts | 278° |
| 2026-04-27 07:23 | 23.65640 | 113.75894 | 10239 ft | 299 kts | 280° |
| 2026-04-27 07:23 | 23.66109 | 113.73734 | 10109 ft | 289 kts | 281° |
| 2026-04-27 07:24 | 23.66590 | 113.71628 | 9919 ft | 282 kts | 281° |
| 2026-04-27 07:24 | 23.67065 | 113.69569 | 9551 ft | 282 kts | 282° |
| 2026-04-27 07:24 | 23.67540 | 113.67522 | 9414 ft | 273 kts | 282° |
| 2026-04-27 07:24 | 23.67997 | 113.65556 | 9329 ft | 262 kts | 281° |
| 2026-04-27 07:25 | 23.68439 | 113.63650 | 9223 ft | 252 kts | 281° |
| 2026-04-27 07:25 | 23.68860 | 113.61833 | 9039 ft | 247 kts | 281° |
| 2026-04-27 07:25 | 23.69279 | 113.60017 | 8705 ft | 248 kts | 281° |
| 2026-04-27 07:25 | 23.69702 | 113.58188 | 8382 ft | 249 kts | 281° |
| 2026-04-27 07:26 | 23.70124 | 113.56366 | 8076 ft | 249 kts | 281° |
| 2026-04-27 07:26 | 23.70547 | 113.54536 | 7769 ft | 249 kts | 281° |
| 2026-04-27 07:26 | 23.70970 | 113.52705 | 7473 ft | 249 kts | 281° |
| 2026-04-27 07:26 | 23.71390 | 113.50891 | 7176 ft | 249 kts | 281° |
| 2026-04-27 07:27 | 23.71812 | 113.49064 | 6875 ft | 248 kts | 281° |
| 2026-04-27 07:27 | 23.72229 | 113.47258 | 6562 ft | 244 kts | 281° |
| 2026-04-27 07:27 | 23.72631 | 113.45475 | 6264 ft | 240 kts | 277° |
| 2026-04-27 07:27 | 23.72537 | 113.43716 | 5954 ft | 229 kts | 246° |
| 2026-04-27 07:28 | 23.71679 | 113.42318 | 5672 ft | 218 kts | 218° |
| 2026-04-27 07:28 | 23.70389 | 113.41523 | 5423 ft | 214 kts | 201° |
| 2026-04-27 07:28 | 23.68972 | 113.41011 | 5165 ft | 214 kts | 195° |
| 2026-04-27 07:28 | 23.67521 | 113.40592 | 4904 ft | 212 kts | 193° |
| 2026-04-27 07:29 | 23.66093 | 113.40202 | 4657 ft | 212 kts | 193° |
| 2026-04-27 07:29 | 23.64655 | 113.39812 | 4412 ft | 211 kts | 193° |
| 2026-04-27 07:29 | 23.63228 | 113.39425 | 4161 ft | 210 kts | 193° |
| 2026-04-27 07:29 | 23.61803 | 113.39038 | 3922 ft | 211 kts | 193° |
| 2026-04-27 07:30 | 23.60384 | 113.38653 | 3765 ft | 204 kts | 192° |
| 2026-04-27 07:30 | 23.59044 | 113.38290 | 3706 ft | 191 kts | 192° |
| 2026-04-27 07:30 | 23.57782 | 113.37949 | 3657 ft | 182 kts | 192° |
| 2026-04-27 07:30 | 23.56554 | 113.37617 | 3599 ft | 181 kts | 192° |
| 2026-04-27 07:31 | 23.55324 | 113.37283 | 3388 ft | 181 kts | 192° |
| 2026-04-27 07:31 | 23.54109 | 113.36955 | 3120 ft | 179 kts | 191° |
| 2026-04-27 07:31 | 23.52930 | 113.36636 | 2866 ft | 170 kts | 192° |
| 2026-04-27 07:31 | 23.51777 | 113.36324 | 2661 ft | 165 kts | 191° |
| 2026-04-27 07:32 | 23.50705 | 113.36033 | 2460 ft | 151 kts | 191° |
| 2026-04-27 07:32 | 23.49690 | 113.35758 | 2258 ft | 148 kts | 191° |
| 2026-04-27 07:32 | 23.48680 | 113.35486 | 2058 ft | 148 kts | 191° |
| 2026-04-27 07:32 | 23.47685 | 113.35216 | 1854 ft | 147 kts | 191° |
| 2026-04-27 07:33 | 23.46686 | 113.34946 | 1665 ft | 147 kts | 191° |
| 2026-04-27 07:33 | 23.45682 | 113.34674 | 1459 ft | 146 kts | 191° |
| 2026-04-27 07:33 | 23.44695 | 113.34407 | 1260 ft | 147 kts | 191° |
| 2026-04-27 07:33 | 23.43701 | 113.34138 | 1070 ft | 147 kts | 191° |
| 2026-04-27 07:34 | 23.42710 | 113.33869 | 883 ft | 147 kts | 191° |
| 2026-04-27 07:34 | 23.41713 | 113.33604 | 685 ft | 146 kts | 192° |
| 2026-04-27 07:34 | 23.40720 | 113.33337 | 499 ft | 147 kts | 192° |
| 2026-04-27 07:34 | 23.39725 | 113.33057 | 304 ft | 147 kts | 192° |
| 2026-04-27 07:35 | 23.38726 | 113.32792 | 102 ft | 147 kts | 192° |
| 2026-04-27 07:35 | 23.37793 | 113.32542 | 58 ft | 121 kts | 194° |
| 2026-04-27 07:35 | 23.37088 | 113.32352 | 58 ft | 89 kts | 194° |
| 2026-04-27 07:35 | 23.36671 | 113.32239 | 58 ft | 30 kts | 194° |
| 2026-04-27 07:36 | 23.36525 | 113.32184 | 58 ft | 19 kts | 206° |
| 2026-04-27 07:36 | 23.36417 | 113.32101 | 58 ft | 17 kts | 219° |
| 2026-04-27 07:36 | 23.36325 | 113.32018 | 58 ft | 16 kts | 219° |
| 2026-04-27 07:36 | 23.36235 | 113.31948 | 58 ft | 15 kts | 203° |
| 2026-04-27 07:37 | 23.36137 | 113.31920 | 58 ft | 14 kts | 193° |
| 2026-04-27 07:37 | 23.36044 | 113.31895 | 58 ft | 13 kts | 194° |
| 2026-04-27 07:37 | 23.35948 | 113.31869 | 58 ft | 15 kts | 194° |
| 2026-04-27 07:37 | 23.35837 | 113.31839 | 58 ft | 12 kts | 194° |
| 2026-04-27 07:38 | 23.35766 | 113.31813 | 58 ft | 10 kts | 221° |
| 2026-04-27 07:38 | 23.35765 | 113.31724 | 58 ft | 13 kts | 283° |
| 2026-04-27 07:38 | 23.35790 | 113.31612 | 58 ft | 16 kts | 283° |
| 2026-04-27 07:38 | 23.35820 | 113.31482 | 58 ft | 18 kts | 283° |
| 2026-04-27 07:39 | 23.35852 | 113.31338 | 58 ft | 20 kts | 283° |
| 2026-04-27 07:39 | 23.35889 | 113.31175 | 58 ft | 22 kts | 283° |
| 2026-04-27 07:39 | 23.35928 | 113.31003 | 58 ft | 24 kts | 284° |
| 2026-04-27 07:39 | 23.35972 | 113.30814 | 58 ft | 26 kts | 283° |
| 2026-04-27 07:40 | 23.36017 | 113.30613 | 58 ft | 28 kts | 284° |
| 2026-04-27 07:40 | 23.36054 | 113.30449 | 58 ft | 21 kts | 284° |
| 2026-04-27 07:40 | 23.36146 | 113.30315 | 58 ft | 23 kts | 324° |
| 2026-04-27 07:40 | 23.36306 | 113.30280 | 58 ft | 25 kts | 9° |
| 2026-04-27 07:41 | 23.36482 | 113.30326 | 58 ft | 26 kts | 14° |
| 2026-04-27 07:41 | 23.36600 | 113.30358 | 58 ft | 11 kts | 14° |
| 2026-04-27 07:41 | 23.36657 | 113.30327 | 58 ft | 10 kts | 283° |
| 2026-04-27 07:41 | 23.36678 | 113.30236 | 58 ft | 13 kts | 284° |
| 2026-04-27 07:42 | 23.36704 | 113.30125 | 58 ft | 16 kts | 284° |
| 2026-04-27 07:42 | 23.36782 | 113.30051 | 58 ft | 17 kts | 6° |
| 2026-04-27 07:42 | 23.36912 | 113.30083 | 58 ft | 20 kts | 14° |
| 2026-04-27 07:42 | 23.37054 | 113.30122 | 58 ft | 22 kts | 14° |
| 2026-04-27 07:43 | 23.37211 | 113.30164 | 58 ft | 23 kts | 14° |
| 2026-04-27 07:43 | 23.37379 | 113.30209 | 58 ft | 25 kts | 14° |
| 2026-04-27 07:43 | 23.37558 | 113.30252 | 58 ft | 27 kts | 4° |
| 2026-04-27 07:43 | 23.37750 | 113.30280 | 58 ft | 28 kts | 14° |
| 2026-04-27 07:44 | 23.37950 | 113.30335 | 58 ft | 30 kts | 13° |
| 2026-04-27 07:44 | 23.38157 | 113.30390 | 58 ft | 31 kts | 14° |
| 2026-04-27 07:44 | 23.38375 | 113.30450 | 58 ft | 32 kts | 14° |
| 2026-04-27 07:44 | 23.38586 | 113.30507 | 58 ft | 30 kts | 14° |
| 2026-04-27 07:45 | 23.38784 | 113.30560 | 58 ft | 28 kts | 14° |
| 2026-04-27 07:45 | 23.38970 | 113.30611 | 58 ft | 26 kts | 14° |
| 2026-04-27 07:45 | 23.39144 | 113.30657 | 58 ft | 24 kts | 14° |
| 2026-04-27 07:45 | 23.39308 | 113.30702 | 58 ft | 23 kts | 14° |
| 2026-04-27 07:46 | 23.39459 | 113.30742 | 58 ft | 21 kts | 14° |
| 2026-04-27 07:46 | 23.39600 | 113.30781 | 58 ft | 20 kts | 14° |
| 2026-04-27 07:46 | 23.39732 | 113.30816 | 58 ft | 18 kts | 14° |
| 2026-04-27 07:46 | 23.39855 | 113.30849 | 58 ft | 17 kts | 14° |
| 2026-04-27 07:47 | 23.39969 | 113.30881 | 58 ft | 16 kts | 13° |
| 2026-04-27 07:47 | 23.40076 | 113.30908 | 58 ft | 15 kts | 14° |
| 2026-04-27 07:47 | 23.40176 | 113.30936 | 58 ft | 14 kts | 14° |
| 2026-04-27 07:47 | 23.40270 | 113.30962 | 58 ft | 13 kts | 14° |
| 2026-04-27 07:48 | 23.40360 | 113.30986 | 58 ft | 12 kts | 14° |
| 2026-04-27 07:48 | 23.40445 | 113.31009 | 58 ft | 12 kts | 14° |
| 2026-04-27 07:48 | 23.40526 | 113.31030 | 58 ft | 11 kts | 13° |
| 2026-04-27 07:48 | 23.40597 | 113.31046 | 58 ft | 5 kts | 352° |
| 2026-04-27 07:49 | 23.40624 | 113.31016 | 58 ft | 6 kts | 285° |
| 2026-04-27 07:49 | 23.40635 | 113.30971 | 58 ft | 6 kts | 284° |
| 2026-04-27 07:49 | 23.40640 | 113.30949 | 58 ft | 0 kts | 284° |